createdAt,value
2019-04-26T00:00:10.177Z,0.00
2019-04-26T00:01:10.008Z,0.00
2019-04-26T00:02:09.943Z,0.00
2019-04-26T00:03:10.330Z,0.00
2019-04-26T00:04:10.284Z,0.00
2019-04-26T00:05:10.264Z,0.00
2019-04-26T00:06:10.248Z,0.00
2019-04-26T00:07:10.468Z,0.00
2019-04-26T00:08:10.854Z,0.00
2019-04-26T00:09:10.945Z,0.00
2019-04-26T00:10:10.476Z,0.00
2019-04-26T00:11:10.661Z,0.00
2019-04-26T00:12:11.307Z,0.00
2019-04-26T00:13:10.199Z,0.00
2019-04-26T00:14:11.377Z,0.00
2019-04-26T00:15:10.279Z,0.00
2019-04-26T00:16:11.215Z,0.00
2019-04-26T00:17:11.294Z,0.00
2019-04-26T00:18:11.816Z,0.00
2019-04-26T00:19:10.908Z,0.00
2019-04-26T00:20:11.577Z,0.00
2019-04-26T00:21:10.641Z,0.00
2019-04-26T00:22:10.728Z,0.00
2019-04-26T00:23:10.884Z,0.00
2019-04-26T00:24:11.673Z,0.00
2019-04-26T00:25:11.439Z,0.00
2019-04-26T00:26:11.097Z,0.00
2019-04-26T00:27:11.382Z,0.00
2019-04-26T00:28:11.738Z,0.00
2019-04-26T00:29:11.400Z,0.00
2019-04-26T00:30:12.072Z,0.00
2019-04-26T00:31:11.504Z,0.00
2019-04-26T00:32:12.174Z,0.00
2019-04-26T00:33:12.405Z,0.00
2019-04-26T00:34:12.455Z,0.00
2019-04-26T00:35:11.622Z,0.00
2019-04-26T00:36:12.360Z,0.00
2019-04-26T00:37:11.594Z,0.00
2019-04-26T00:38:11.627Z,0.00
2019-04-26T00:39:11.871Z,0.00
2019-04-26T00:40:11.683Z,0.00
2019-04-26T00:41:12.670Z,0.00
2019-04-26T00:42:12.205Z,0.00
2019-04-26T00:43:12.779Z,0.00
2019-04-26T00:44:12.228Z,0.00
2019-04-26T00:45:12.505Z,0.00
2019-04-26T00:46:13.259Z,0.00
2019-04-26T00:47:13.612Z,0.00
2019-04-26T00:48:12.538Z,0.00
2019-04-26T00:49:12.612Z,0.00
2019-04-26T00:50:13.732Z,0.00
2019-04-26T00:51:12.801Z,0.00
2019-04-26T00:52:12.996Z,0.00
2019-04-26T00:53:13.298Z,0.00
2019-04-26T00:54:14.068Z,0.00
2019-04-26T00:55:14.157Z,0.00
2019-04-26T00:56:12.500Z,0.00
2019-04-26T00:57:14.492Z,0.00
2019-04-26T00:58:12.613Z,0.00
2019-04-26T00:59:12.670Z,0.00
2019-04-26T01:00:12.727Z,0.00
2019-04-26T01:01:12.784Z,0.00
2019-04-26T01:02:12.839Z,0.00
2019-04-26T01:03:12.896Z,0.00
2019-04-26T01:04:12.953Z,0.00
2019-04-26T01:05:13.011Z,0.00
2019-04-26T01:06:13.067Z,0.00
2019-04-26T01:07:13.122Z,0.00
2019-04-26T01:08:13.179Z,0.00
2019-04-26T01:09:13.236Z,0.00
2019-04-26T01:10:13.292Z,0.00
2019-04-26T01:11:13.352Z,0.00
2019-04-26T01:12:13.406Z,0.00
2019-04-26T01:13:13.464Z,0.00
2019-04-26T01:14:13.519Z,0.00
2019-04-26T01:15:15.770Z,0.00
2019-04-26T01:16:13.645Z,0.00
2019-04-26T01:17:13.689Z,0.00
2019-04-26T01:18:13.744Z,0.00
2019-04-26T01:19:13.802Z,0.00
2019-04-26T01:20:13.859Z,0.00
2019-04-26T01:21:13.916Z,0.00
2019-04-26T01:22:13.972Z,0.00
2019-04-26T01:23:14.032Z,0.00
2019-04-26T01:24:14.094Z,0.00
2019-04-26T01:25:14.144Z,0.00
2019-04-26T01:26:14.199Z,0.00
2019-04-26T01:27:14.256Z,0.00
2019-04-26T01:28:14.314Z,0.00
2019-04-26T01:29:14.370Z,0.00
2019-04-26T01:30:14.425Z,0.00
2019-04-26T01:31:14.483Z,0.00
2019-04-26T01:32:14.540Z,0.00
2019-04-26T01:33:14.596Z,0.00
2019-04-26T01:34:14.651Z,0.00
2019-04-26T01:35:14.708Z,0.00
2019-04-26T01:36:14.765Z,0.00
2019-04-26T01:37:14.823Z,0.00
2019-04-26T01:38:14.878Z,0.00
2019-04-26T01:39:14.935Z,0.00
2019-04-26T01:40:14.992Z,0.00
2019-04-26T01:41:15.049Z,0.00
2019-04-26T01:42:15.106Z,0.00
2019-04-26T01:43:15.163Z,0.00
2019-04-26T01:44:15.220Z,0.00
2019-04-26T01:45:15.280Z,0.00
2019-04-26T01:46:15.332Z,0.00
2019-04-26T01:47:15.390Z,0.00
2019-04-26T01:48:15.447Z,0.00
2019-04-26T01:49:15.502Z,0.00
2019-04-26T01:50:15.567Z,0.00
2019-04-26T01:51:15.615Z,0.00
2019-04-26T01:52:15.673Z,0.00
2019-04-26T01:53:15.728Z,0.00
2019-04-26T01:54:15.784Z,0.00
2019-04-26T01:55:15.842Z,0.00
2019-04-26T01:56:15.899Z,0.00
2019-04-26T01:57:15.955Z,0.00
2019-04-26T01:58:16.011Z,0.00
2019-04-26T01:59:16.075Z,0.00
2019-04-26T02:00:16.124Z,0.00
2019-04-26T02:01:16.181Z,0.00
2019-04-26T02:02:16.236Z,0.00
2019-04-26T02:03:16.295Z,0.00
2019-04-26T02:04:16.350Z,0.00
2019-04-26T02:05:16.405Z,0.00
2019-04-26T02:06:25.302Z,0.00
2019-04-26T02:07:16.520Z,0.00
2019-04-26T02:08:16.576Z,0.00
2019-04-26T02:09:16.632Z,0.00
2019-04-26T02:10:16.688Z,0.00
2019-04-26T02:11:16.743Z,0.00
2019-04-26T02:12:16.803Z,0.00
2019-04-26T02:13:16.858Z,0.00
2019-04-26T02:14:16.912Z,0.00
2019-04-26T02:15:16.970Z,0.00
2019-04-26T02:16:17.025Z,0.00
2019-04-26T02:17:17.082Z,0.00
2019-04-26T02:18:17.138Z,0.00
2019-04-26T02:19:17.194Z,0.00
2019-04-26T02:20:17.251Z,0.00
2019-04-26T02:21:17.309Z,0.00
2019-04-26T02:22:17.363Z,0.00
2019-04-26T02:23:17.418Z,0.00
2019-04-26T02:24:17.476Z,0.00
2019-04-26T02:25:17.532Z,0.00
2019-04-26T02:26:17.588Z,0.00
2019-04-26T02:27:17.644Z,0.00
2019-04-26T02:28:17.702Z,0.00
2019-04-26T02:29:17.759Z,0.00
2019-04-26T02:30:17.813Z,0.00
2019-04-26T02:31:17.876Z,0.00
2019-04-26T02:32:17.927Z,0.00
2019-04-26T02:33:17.982Z,0.00
2019-04-26T02:34:18.039Z,0.00
2019-04-26T02:35:18.096Z,0.00
2019-04-26T02:36:18.150Z,0.00
2019-04-26T02:37:18.209Z,0.00
2019-04-26T02:38:18.270Z,0.00
2019-04-26T02:39:18.322Z,0.00
2019-04-26T02:40:18.376Z,0.00
2019-04-26T02:41:18.437Z,0.00
2019-04-26T02:42:18.495Z,0.00
2019-04-26T02:43:18.545Z,0.00
2019-04-26T02:44:21.810Z,0.00
2019-04-26T02:45:18.660Z,0.00
2019-04-26T02:46:18.713Z,0.00
2019-04-26T02:47:18.770Z,0.00
2019-04-26T02:48:18.831Z,0.00
2019-04-26T02:49:18.884Z,0.00
2019-04-26T02:50:18.943Z,0.00
2019-04-26T02:51:18.995Z,0.00
2019-04-26T02:52:19.050Z,0.00
2019-04-26T02:53:19.107Z,0.00
2019-04-26T02:54:19.192Z,0.00
2019-04-26T02:55:19.222Z,0.00
2019-04-26T02:56:19.276Z,0.00
2019-04-26T02:57:19.333Z,0.00
2019-04-26T02:58:19.388Z,0.00
2019-04-26T02:59:19.444Z,0.00
2019-04-26T03:00:19.501Z,0.00
2019-04-26T03:01:19.560Z,0.00
2019-04-26T03:02:19.613Z,0.00
2019-04-26T03:03:19.682Z,0.00
2019-04-26T03:04:19.727Z,0.00
2019-04-26T03:05:19.783Z,0.00
2019-04-26T03:06:19.839Z,0.00
2019-04-26T03:07:19.895Z,0.00
2019-04-26T03:08:19.952Z,0.00
2019-04-26T03:09:20.010Z,0.00
2019-04-26T03:10:20.067Z,0.00
2019-04-26T03:11:20.124Z,0.00
2019-04-26T03:12:20.188Z,0.00
2019-04-26T03:13:20.234Z,0.00
2019-04-26T03:14:20.289Z,0.00
2019-04-26T03:15:20.357Z,0.00
2019-04-26T03:16:20.403Z,0.00
2019-04-26T03:17:20.458Z,0.00
2019-04-26T03:18:20.514Z,0.00
2019-04-26T03:19:20.572Z,0.00
2019-04-26T03:20:20.628Z,0.00
2019-04-26T03:21:20.689Z,0.00
2019-04-26T03:22:20.739Z,0.00
2019-04-26T03:23:20.843Z,0.00
2019-04-26T03:24:20.853Z,0.00
2019-04-26T03:25:20.910Z,0.00
2019-04-26T03:26:20.965Z,0.00
2019-04-26T03:27:21.022Z,0.00
2019-04-26T03:28:21.078Z,0.00
2019-04-26T03:29:21.137Z,0.00
2019-04-26T03:30:22.717Z,0.00
2019-04-26T03:31:21.254Z,0.00
2019-04-26T03:32:21.321Z,0.00
2019-04-26T03:33:21.518Z,0.00
2019-04-26T03:34:21.522Z,0.00
2019-04-26T03:35:21.471Z,0.00
2019-04-26T03:36:21.548Z,0.00
2019-04-26T03:37:21.883Z,0.00
2019-04-26T03:38:21.639Z,0.00
2019-04-26T03:39:21.704Z,0.00
2019-04-26T03:40:21.761Z,0.00
2019-04-26T03:41:21.808Z,0.00
2019-04-26T03:42:21.862Z,0.00
2019-04-26T03:43:21.931Z,0.00
2019-04-26T03:44:21.979Z,0.00
2019-04-26T03:45:22.034Z,0.00
2019-04-26T03:46:22.087Z,0.00
2019-04-26T03:47:22.143Z,0.00
2019-04-26T03:48:22.199Z,0.00
2019-04-26T03:49:22.269Z,0.00
2019-04-26T03:50:22.312Z,0.00
2019-04-26T03:51:22.367Z,0.00
2019-04-26T03:52:22.423Z,0.00
2019-04-26T03:53:22.479Z,0.00
2019-04-26T03:54:22.535Z,0.00
2019-04-26T03:55:22.589Z,0.00
2019-04-26T03:56:22.660Z,0.00
2019-04-26T03:57:22.704Z,0.00
2019-04-26T03:58:22.757Z,0.00
2019-04-26T03:59:22.814Z,0.00
2019-04-26T04:00:22.871Z,0.00
2019-04-26T04:01:22.926Z,0.00
2019-04-26T04:02:22.984Z,0.00
2019-04-26T04:03:26.612Z,0.00
2019-04-26T04:04:23.092Z,0.00
2019-04-26T04:05:23.149Z,0.00
2019-04-26T04:06:23.204Z,0.00
2019-04-26T04:07:36.162Z,0.00
2019-04-26T04:08:23.317Z,0.00
2019-04-26T04:09:23.374Z,0.00
2019-04-26T04:10:23.428Z,0.00
2019-04-26T04:11:23.519Z,0.00
2019-04-26T04:12:23.574Z,0.00
2019-04-26T04:13:23.597Z,0.00
2019-04-26T04:14:23.762Z,0.00
2019-04-26T04:15:23.710Z,0.00
2019-04-26T04:16:23.764Z,0.00
2019-04-26T04:17:23.820Z,0.00
2019-04-26T04:18:23.877Z,0.00
2019-04-26T04:19:23.933Z,0.00
2019-04-26T04:20:23.993Z,0.00
2019-04-26T04:21:24.053Z,0.00
2019-04-26T04:22:24.107Z,0.00
2019-04-26T04:23:24.156Z,0.00
2019-04-26T04:24:24.211Z,0.00
2019-04-26T04:25:24.272Z,5.63
2019-04-26T04:26:24.323Z,5.63
2019-04-26T04:27:24.381Z,5.63
2019-04-26T04:28:24.436Z,5.63
2019-04-26T04:29:39.093Z,5.63
2019-04-26T04:30:24.545Z,5.63
2019-04-26T04:31:24.600Z,5.63
2019-04-26T04:32:24.663Z,5.63
2019-04-26T04:33:24.714Z,11.25
2019-04-26T04:34:24.769Z,11.25
2019-04-26T04:35:24.822Z,11.25
2019-04-26T04:36:24.880Z,11.25
2019-04-26T04:37:24.962Z,11.25
2019-04-26T04:38:24.991Z,11.25
2019-04-26T04:39:25.069Z,11.25
2019-04-26T04:40:25.104Z,11.25
2019-04-26T04:41:25.160Z,11.25
2019-04-26T04:42:25.214Z,11.25
2019-04-26T04:43:25.383Z,11.25
2019-04-26T04:44:25.327Z,11.25
2019-04-26T04:45:25.383Z,11.25
2019-04-26T04:46:25.604Z,11.25
2019-04-26T04:47:26.007Z,11.25
2019-04-26T04:48:25.548Z,11.25
2019-04-26T04:49:25.605Z,16.88
2019-04-26T04:50:25.663Z,16.88
2019-04-26T04:51:25.716Z,16.88
2019-04-26T04:52:25.772Z,16.88
2019-04-26T04:53:25.829Z,16.88
2019-04-26T04:54:25.883Z,16.88
2019-04-26T04:55:25.945Z,16.88
2019-04-26T04:56:25.995Z,16.88
2019-04-26T04:57:26.070Z,22.50
2019-04-26T04:58:26.107Z,22.50
2019-04-26T04:59:26.161Z,28.13
2019-04-26T05:00:26.216Z,28.13
2019-04-26T05:01:26.272Z,33.75
2019-04-26T05:02:26.328Z,33.75
2019-04-26T05:03:26.385Z,39.38
2019-04-26T05:04:26.793Z,45.00
2019-04-26T05:05:26.499Z,50.63
2019-04-26T05:06:26.550Z,56.25
2019-04-26T05:07:26.637Z,56.25
2019-04-26T05:08:26.661Z,61.88
2019-04-26T05:09:26.718Z,67.50
2019-04-26T05:10:26.772Z,73.13
2019-04-26T05:11:26.830Z,78.75
2019-04-26T05:12:26.884Z,78.75
2019-04-26T05:13:26.940Z,84.38
2019-04-26T05:14:26.996Z,84.38
2019-04-26T05:15:27.053Z,84.38
2019-04-26T05:16:27.107Z,90.00
2019-04-26T05:17:27.163Z,90.00
2019-04-26T05:18:27.220Z,95.63
2019-04-26T05:19:27.274Z,101.25
2019-04-26T05:20:27.331Z,106.88
2019-04-26T05:21:27.388Z,106.88
2019-04-26T05:22:27.442Z,118.13
2019-04-26T05:23:27.498Z,123.75
2019-04-26T05:24:27.554Z,129.38
2019-04-26T05:25:27.611Z,135.00
2019-04-26T05:26:27.667Z,135.00
2019-04-26T05:27:27.722Z,129.38
2019-04-26T05:28:27.778Z,129.38
2019-04-26T05:29:27.835Z,123.75
2019-04-26T05:30:27.890Z,123.75
2019-04-26T05:31:27.946Z,123.75
2019-04-26T05:32:28.005Z,123.75
2019-04-26T05:33:28.059Z,129.38
2019-04-26T05:34:28.115Z,135.00
2019-04-26T05:35:28.170Z,146.25
2019-04-26T05:36:28.226Z,151.88
2019-04-26T05:37:28.283Z,151.88
2019-04-26T05:38:28.339Z,140.63
2019-04-26T05:39:28.400Z,135.00
2019-04-26T05:40:28.452Z,135.00
2019-04-26T05:41:28.509Z,135.00
2019-04-26T05:42:28.564Z,123.75
2019-04-26T05:43:28.620Z,118.13
2019-04-26T05:44:28.677Z,95.63
2019-04-26T05:45:28.782Z,84.38
2019-04-26T05:46:28.789Z,84.38
2019-04-26T05:47:28.847Z,90.00
2019-04-26T05:48:28.900Z,101.25
2019-04-26T05:49:28.962Z,106.88
2019-04-26T05:50:29.393Z,112.50
2019-04-26T05:51:29.070Z,106.88
2019-04-26T05:52:29.179Z,106.88
2019-04-26T05:53:29.183Z,101.25
2019-04-26T05:54:29.239Z,95.63
2019-04-26T05:55:29.297Z,95.63
2019-04-26T05:56:29.352Z,90.00
2019-04-26T05:57:29.417Z,84.38
2019-04-26T05:58:29.462Z,84.38
2019-04-26T05:59:29.521Z,84.38
2019-04-26T06:00:29.576Z,78.75
2019-04-26T06:01:29.631Z,78.75
2019-04-26T06:02:29.686Z,73.13
2019-04-26T06:03:29.744Z,78.75
2019-04-26T06:04:29.800Z,78.75
2019-04-26T06:05:29.856Z,78.75
2019-04-26T06:06:29.913Z,78.75
2019-04-26T06:07:29.970Z,73.13
2019-04-26T06:08:31.503Z,73.13
2019-04-26T06:09:30.087Z,73.13
2019-04-26T06:10:30.137Z,73.13
2019-04-26T06:11:30.192Z,73.13
2019-04-26T06:12:30.249Z,73.13
2019-04-26T06:13:30.307Z,73.13
2019-04-26T06:14:30.361Z,73.13
2019-04-26T06:15:30.417Z,73.13
2019-04-26T06:16:30.487Z,78.75
2019-04-26T06:17:30.582Z,84.38
2019-04-26T06:18:30.584Z,84.38
2019-04-26T06:19:30.641Z,84.38
2019-04-26T06:20:30.698Z,84.38
2019-04-26T06:21:30.755Z,84.38
2019-04-26T06:22:30.811Z,84.38
2019-04-26T06:23:30.866Z,84.38
2019-04-26T06:24:30.923Z,84.38
2019-04-26T06:25:30.989Z,84.38
2019-04-26T06:26:31.363Z,90.00
2019-04-26T06:27:31.090Z,90.00
2019-04-26T06:28:31.146Z,95.63
2019-04-26T06:29:32.739Z,101.25
2019-04-26T06:30:31.258Z,101.25
2019-04-26T06:31:31.315Z,106.88
2019-04-26T06:32:31.479Z,112.50
2019-04-26T06:33:31.429Z,112.50
2019-04-26T06:34:31.483Z,118.13
2019-04-26T06:35:31.539Z,123.75
2019-04-26T06:36:31.597Z,123.75
2019-04-26T06:37:31.652Z,129.38
2019-04-26T06:38:43.269Z,123.75
2019-04-26T06:39:31.766Z,129.38
2019-04-26T06:40:41.668Z,129.38
2019-04-26T06:41:31.877Z,135.00
2019-04-26T06:42:31.933Z,135.00
2019-04-26T06:43:31.989Z,129.38
2019-04-26T06:44:32.047Z,123.75
2019-04-26T06:45:32.101Z,123.75
2019-04-26T06:46:32.195Z,123.75
2019-04-26T06:47:32.214Z,123.75
2019-04-26T06:48:32.281Z,118.13
2019-04-26T06:49:32.326Z,118.13
2019-04-26T06:50:32.381Z,123.75
2019-04-26T06:51:32.438Z,135.00
2019-04-26T06:52:32.495Z,151.88
2019-04-26T06:53:32.554Z,168.75
2019-04-26T06:54:32.606Z,180.00
2019-04-26T06:55:32.664Z,191.25
2019-04-26T06:56:32.720Z,202.50
2019-04-26T06:57:32.776Z,219.38
2019-04-26T06:58:32.831Z,230.63
2019-04-26T06:59:36.604Z,241.88
2019-04-26T07:00:33.474Z,253.13
2019-04-26T07:01:33.003Z,258.75
2019-04-26T07:02:33.058Z,264.38
2019-04-26T07:03:33.113Z,270.00
2019-04-26T07:04:33.170Z,281.25
2019-04-26T07:05:33.228Z,298.13
2019-04-26T07:06:35.210Z,309.38
2019-04-26T07:07:33.339Z,309.38
2019-04-26T07:08:33.395Z,315.00
2019-04-26T07:09:33.452Z,320.63
2019-04-26T07:10:33.509Z,331.88
2019-04-26T07:11:33.566Z,354.38
2019-04-26T07:12:33.624Z,365.63
2019-04-26T07:13:33.679Z,382.50
2019-04-26T07:14:33.735Z,399.38
2019-04-26T07:15:33.794Z,416.25
2019-04-26T07:16:33.852Z,450.00
2019-04-26T07:17:33.907Z,472.50
2019-04-26T07:18:33.962Z,495.00
2019-04-26T07:19:34.021Z,506.25
2019-04-26T07:20:34.076Z,506.25
2019-04-26T07:21:34.133Z,489.38
2019-04-26T07:22:35.470Z,461.25
2019-04-26T07:23:34.249Z,427.50
2019-04-26T07:24:34.304Z,399.38
2019-04-26T07:25:34.363Z,371.25
2019-04-26T07:26:34.419Z,360.00
2019-04-26T07:27:34.476Z,348.75
2019-04-26T07:28:34.538Z,337.50
2019-04-26T07:29:34.591Z,326.25
2019-04-26T07:30:34.647Z,303.75
2019-04-26T07:31:34.705Z,270.00
2019-04-26T07:32:35.255Z,241.88
2019-04-26T07:33:34.820Z,247.50
2019-04-26T07:34:34.876Z,241.88
2019-04-26T07:35:34.933Z,219.38
2019-04-26T07:36:34.990Z,208.13
2019-04-26T07:37:35.048Z,219.38
2019-04-26T07:38:35.105Z,219.38
2019-04-26T07:39:35.167Z,225.00
2019-04-26T07:40:35.218Z,219.38
2019-04-26T07:41:35.275Z,208.13
2019-04-26T07:42:35.335Z,213.75
2019-04-26T07:43:35.393Z,225.00
2019-04-26T07:44:35.448Z,219.38
2019-04-26T07:45:36.121Z,202.50
2019-04-26T07:46:35.560Z,185.63
2019-04-26T07:47:35.619Z,174.38
2019-04-26T07:48:35.677Z,185.63
2019-04-26T07:49:35.734Z,174.38
2019-04-26T07:50:35.788Z,140.63
2019-04-26T07:51:35.845Z,135.00
2019-04-26T07:52:35.901Z,135.00
2019-04-26T07:53:35.960Z,129.38
2019-04-26T07:54:36.016Z,123.75
2019-04-26T07:55:36.072Z,118.13
2019-04-26T07:56:36.757Z,135.00
2019-04-26T07:57:36.186Z,157.50
2019-04-26T07:58:36.242Z,168.75
2019-04-26T07:59:36.299Z,180.00
2019-04-26T08:00:44.761Z,191.25
2019-04-26T08:01:36.413Z,196.88
2019-04-26T08:02:36.470Z,196.88
2019-04-26T08:03:36.525Z,208.13
2019-04-26T08:04:36.582Z,225.00
2019-04-26T08:05:36.639Z,236.25
2019-04-26T08:06:36.696Z,241.88
2019-04-26T08:07:36.754Z,253.13
2019-04-26T08:08:36.809Z,264.38
2019-04-26T08:09:36.892Z,286.88
2019-04-26T08:10:36.926Z,286.88
2019-04-26T08:11:36.981Z,275.63
2019-04-26T08:12:37.041Z,298.13
2019-04-26T08:13:37.095Z,320.63
2019-04-26T08:14:37.150Z,326.25
2019-04-26T08:15:37.207Z,326.25
2019-04-26T08:16:37.747Z,337.50
2019-04-26T08:17:37.774Z,360.00
2019-04-26T08:18:37.708Z,376.88
2019-04-26T08:19:37.435Z,382.50
2019-04-26T08:20:37.501Z,399.38
2019-04-26T08:21:37.549Z,433.13
2019-04-26T08:22:37.605Z,450.00
2019-04-26T08:23:41.373Z,427.50
2019-04-26T08:24:37.721Z,399.38
2019-04-26T08:25:37.777Z,410.63
2019-04-26T08:26:37.834Z,444.38
2019-04-26T08:27:37.892Z,495.00
2019-04-26T08:28:37.951Z,528.75
2019-04-26T08:29:38.406Z,528.75
2019-04-26T08:30:40.584Z,511.88
2019-04-26T08:31:38.121Z,489.38
2019-04-26T08:32:50.914Z,478.13
2019-04-26T08:33:40.452Z,472.50
2019-04-26T08:34:38.292Z,483.75
2019-04-26T08:35:38.376Z,500.63
2019-04-26T08:36:38.407Z,528.75
2019-04-26T08:37:38.465Z,562.50
2019-04-26T08:38:38.520Z,590.63
2019-04-26T08:39:45.485Z,601.88
2019-04-26T08:40:38.663Z,590.63
2019-04-26T08:41:39.149Z,568.13
2019-04-26T08:42:38.752Z,517.50
2019-04-26T08:43:38.810Z,495.00
2019-04-26T08:44:38.869Z,489.38
2019-04-26T08:45:40.461Z,444.38
2019-04-26T08:46:39.740Z,427.50
2019-04-26T08:47:39.645Z,450.00
2019-04-26T08:48:39.100Z,489.38
2019-04-26T08:49:40.064Z,523.13
2019-04-26T08:50:42.215Z,511.88
2019-04-26T08:51:39.273Z,478.13
2019-04-26T08:52:39.337Z,455.63
2019-04-26T08:53:39.908Z,455.63
2019-04-26T08:54:39.448Z,472.50
2019-04-26T08:55:39.503Z,461.25
2019-04-26T08:56:39.563Z,427.50
2019-04-26T08:57:39.620Z,399.38
2019-04-26T08:58:39.677Z,388.13
2019-04-26T08:59:39.765Z,371.25
2019-04-26T09:00:39.794Z,343.13
2019-04-26T09:01:41.981Z,303.75
2019-04-26T09:02:39.908Z,281.25
2019-04-26T09:03:40.019Z,270.00
2019-04-26T09:04:40.024Z,264.38
2019-04-26T09:05:40.085Z,241.88
2019-04-26T09:06:40.140Z,225.00
2019-04-26T09:07:40.198Z,236.25
2019-04-26T09:08:43.604Z,241.88
2019-04-26T09:09:40.313Z,253.13
2019-04-26T09:10:43.289Z,275.63
2019-04-26T09:11:40.427Z,298.13
2019-04-26T09:12:40.485Z,275.63
2019-04-26T09:13:40.542Z,241.88
2019-04-26T09:14:40.599Z,230.63
2019-04-26T09:15:40.783Z,230.63
2019-04-26T09:16:50.120Z,253.13
2019-04-26T09:17:40.773Z,286.88
2019-04-26T09:18:43.711Z,309.38
2019-04-26T09:19:40.887Z,337.50
2019-04-26T09:20:42.872Z,365.63
2019-04-26T09:21:41.002Z,371.25
2019-04-26T09:22:41.058Z,348.75
2019-04-26T09:23:44.317Z,303.75
2019-04-26T09:24:41.187Z,286.88
2019-04-26T09:25:41.231Z,275.63
2019-04-26T09:26:44.919Z,264.38
2019-04-26T09:27:41.382Z,281.25
2019-04-26T09:28:41.402Z,303.75
2019-04-26T09:29:41.459Z,315.00
2019-04-26T09:30:42.394Z,309.38
2019-04-26T09:31:41.572Z,298.13
2019-04-26T09:32:41.630Z,292.50
2019-04-26T09:33:41.689Z,292.50
2019-04-26T09:34:42.812Z,298.13
2019-04-26T09:35:41.802Z,292.50
2019-04-26T09:36:41.861Z,286.88
2019-04-26T09:37:41.917Z,309.38
2019-04-26T09:38:41.983Z,354.38
2019-04-26T09:39:43.330Z,360.00
2019-04-26T09:40:42.090Z,348.75
2019-04-26T09:41:42.148Z,343.13
2019-04-26T09:42:42.222Z,360.00
2019-04-26T09:43:42.271Z,354.38
2019-04-26T09:44:42.988Z,331.88
2019-04-26T09:45:42.815Z,320.63
2019-04-26T09:46:44.377Z,337.50
2019-04-26T09:47:42.491Z,376.88
2019-04-26T09:48:43.074Z,450.00
2019-04-26T09:49:43.120Z,523.13
2019-04-26T09:50:43.185Z,573.75
2019-04-26T09:51:43.191Z,613.13
2019-04-26T09:52:43.105Z,641.25
2019-04-26T09:53:44.706Z,630.00
2019-04-26T09:54:42.892Z,630.00
2019-04-26T09:55:42.949Z,663.75
2019-04-26T09:56:43.019Z,680.63
2019-04-26T09:57:43.111Z,686.25
2019-04-26T09:58:43.125Z,646.88
2019-04-26T09:59:43.705Z,590.63
2019-04-26T10:00:44.101Z,523.13
2019-04-26T10:01:44.033Z,461.25
2019-04-26T10:02:43.887Z,433.13
2019-04-26T10:03:44.015Z,416.25
2019-04-26T10:04:43.469Z,427.50
2019-04-26T10:05:43.528Z,466.88
2019-04-26T10:06:43.584Z,534.38
2019-04-26T10:07:43.643Z,585.00
2019-04-26T10:08:47.069Z,658.13
2019-04-26T10:09:43.761Z,720.00
2019-04-26T10:10:43.816Z,781.88
2019-04-26T10:11:44.580Z,798.75
2019-04-26T10:12:43.933Z,753.75
2019-04-26T10:13:43.993Z,686.25
2019-04-26T10:14:46.411Z,618.75
2019-04-26T10:15:44.109Z,545.63
2019-04-26T10:16:44.165Z,489.38
2019-04-26T10:17:46.384Z,461.25
2019-04-26T10:18:44.280Z,421.88
2019-04-26T10:19:44.340Z,416.25
2019-04-26T10:20:44.399Z,450.00
2019-04-26T10:21:44.455Z,517.50
2019-04-26T10:22:44.515Z,562.50
2019-04-26T10:23:44.573Z,556.88
2019-04-26T10:24:44.632Z,517.50
2019-04-26T10:25:47.452Z,495.00
2019-04-26T10:26:45.388Z,489.38
2019-04-26T10:27:45.618Z,483.75
2019-04-26T10:28:46.700Z,489.38
2019-04-26T10:29:45.774Z,528.75
2019-04-26T10:30:45.512Z,585.00
2019-04-26T10:31:47.618Z,624.38
2019-04-26T10:32:45.097Z,618.75
2019-04-26T10:33:45.156Z,585.00
2019-04-26T10:34:47.319Z,534.38
2019-04-26T10:35:45.271Z,511.88
2019-04-26T10:36:45.331Z,511.88
2019-04-26T10:37:48.195Z,540.00
2019-04-26T10:38:45.445Z,551.25
2019-04-26T10:39:45.503Z,590.63
2019-04-26T10:40:45.560Z,618.75
2019-04-26T10:41:45.620Z,646.88
2019-04-26T10:42:45.677Z,641.25
2019-04-26T10:43:45.736Z,624.38
2019-04-26T10:44:45.798Z,596.25
2019-04-26T10:45:53.444Z,562.50
2019-04-26T10:46:55.454Z,511.88
2019-04-26T10:47:46.631Z,483.75
2019-04-26T10:48:49.763Z,466.88
2019-04-26T10:49:46.683Z,478.13
2019-04-26T10:50:46.142Z,495.00
2019-04-26T10:51:46.201Z,489.38
2019-04-26T10:52:53.646Z,500.63
2019-04-26T10:53:46.316Z,528.75
2019-04-26T10:54:46.374Z,556.88
2019-04-26T10:55:50.154Z,652.50
2019-04-26T10:56:46.492Z,821.25
2019-04-26T10:57:46.550Z,1085.63
2019-04-26T10:58:46.608Z,1321.88
2019-04-26T10:59:46.666Z,1423.13
2019-04-26T11:00:48.450Z,1321.88
2019-04-26T11:01:46.784Z,1209.38
2019-04-26T11:02:46.842Z,1192.50
2019-04-26T11:03:46.900Z,1181.25
2019-04-26T11:04:46.958Z,1102.50
2019-04-26T11:05:49.275Z,1063.13
2019-04-26T11:06:47.105Z,1006.88
2019-04-26T11:07:47.137Z,905.63
2019-04-26T11:08:47.196Z,810.00
2019-04-26T11:09:47.255Z,731.25
2019-04-26T11:10:48.854Z,652.50
2019-04-26T11:11:47.372Z,680.63
2019-04-26T11:12:47.432Z,770.63
2019-04-26T11:13:47.501Z,776.25
2019-04-26T11:14:47.550Z,725.63
2019-04-26T11:15:47.610Z,658.13
2019-04-26T11:16:47.669Z,646.88
2019-04-26T11:17:49.877Z,691.88
2019-04-26T11:18:47.787Z,697.50
2019-04-26T11:19:47.849Z,708.75
2019-04-26T11:20:47.908Z,669.38
2019-04-26T11:21:50.976Z,675.00
2019-04-26T11:22:48.025Z,691.88
2019-04-26T11:23:49.988Z,686.25
2019-04-26T11:24:50.054Z,663.75
2019-04-26T11:25:48.202Z,641.25
2019-04-26T11:26:48.263Z,613.13
2019-04-26T11:27:48.670Z,607.50
2019-04-26T11:28:51.360Z,641.25
2019-04-26T11:29:53.803Z,714.38
2019-04-26T11:30:51.998Z,787.50
2019-04-26T11:31:48.559Z,826.88
2019-04-26T11:32:48.619Z,815.63
2019-04-26T11:33:49.599Z,748.13
2019-04-26T11:34:48.773Z,663.75
2019-04-26T11:35:48.798Z,624.38
2019-04-26T11:36:48.856Z,596.25
2019-04-26T11:37:50.732Z,601.88
2019-04-26T11:38:48.989Z,641.25
2019-04-26T11:39:49.047Z,708.75
2019-04-26T11:40:58.426Z,787.50
2019-04-26T11:41:49.160Z,804.38
2019-04-26T11:42:49.224Z,770.63
2019-04-26T11:43:52.807Z,759.38
2019-04-26T11:44:49.331Z,736.88
2019-04-26T11:45:50.456Z,736.88
2019-04-26T11:46:49.449Z,742.50
2019-04-26T11:47:56.283Z,731.25
2019-04-26T11:48:58.543Z,731.25
2019-04-26T11:49:50.128Z,736.88
2019-04-26T11:50:52.285Z,781.88
2019-04-26T11:51:49.744Z,871.88
2019-04-26T11:52:49.805Z,1102.50
2019-04-26T11:53:49.865Z,1220.63
2019-04-26T11:54:51.276Z,1271.25
2019-04-26T11:55:49.981Z,1366.88
2019-04-26T11:56:50.425Z,1299.38
2019-04-26T11:57:50.100Z,1237.50
2019-04-26T11:58:52.486Z,1181.25
2019-04-26T11:59:50.219Z,1125.00
2019-04-26T12:00:50.278Z,928.13
2019-04-26T12:01:50.340Z,871.88
2019-04-26T12:02:52.007Z,787.50
2019-04-26T12:03:51.680Z,680.63
2019-04-26T12:04:53.723Z,635.63
2019-04-26T12:05:50.578Z,697.50
2019-04-26T12:06:50.643Z,742.50
2019-04-26T12:07:50.697Z,748.13
2019-04-26T12:08:50.803Z,736.88
2019-04-26T12:09:50.819Z,646.88
2019-04-26T12:10:50.878Z,545.63
2019-04-26T12:12:03.703Z,500.63
2019-04-26T12:12:51.823Z,472.50
2019-04-26T12:13:51.058Z,450.00
2019-04-26T12:14:51.121Z,450.00
2019-04-26T12:15:51.178Z,461.25
2019-04-26T12:16:55.065Z,489.38
2019-04-26T12:17:58.463Z,455.63
2019-04-26T12:18:51.360Z,405.00
2019-04-26T12:19:52.330Z,393.75
2019-04-26T12:20:51.479Z,461.25
2019-04-26T12:21:51.551Z,562.50
2019-04-26T12:22:51.597Z,675.00
2019-04-26T12:23:55.491Z,725.63
2019-04-26T12:24:51.715Z,793.13
2019-04-26T12:25:51.776Z,843.75
2019-04-26T12:26:52.130Z,832.50
2019-04-26T12:27:53.606Z,742.50
2019-04-26T12:28:51.956Z,579.38
2019-04-26T12:29:52.015Z,433.13
2019-04-26T12:30:54.143Z,354.38
2019-04-26T12:31:52.132Z,337.50
2019-04-26T12:32:52.192Z,303.75
2019-04-26T12:33:52.251Z,258.75
2019-04-26T12:34:52.313Z,225.00
2019-04-26T12:35:57.107Z,253.13
2019-04-26T12:36:52.429Z,326.25
2019-04-26T12:37:54.773Z,410.63
2019-04-26T12:38:52.546Z,438.75
2019-04-26T12:39:52.607Z,450.00
2019-04-26T12:40:52.669Z,466.88
2019-04-26T12:41:52.723Z,500.63
2019-04-26T12:42:52.785Z,556.88
2019-04-26T12:43:54.566Z,646.88
2019-04-26T12:44:52.900Z,725.63
2019-04-26T12:45:52.960Z,810.00
2019-04-26T12:46:53.018Z,871.88
2019-04-26T12:47:53.078Z,950.63